sensor_id;sensor_type;location;lat;lon;timestamp;P1;durP1;ratioP1;P2;durP2;ratioP2
15110;SDS011;7656;51.954;7.998;2022-07-29T00:03:24;4.03;;;1.23;;
15110;SDS011;7656;51.954;7.998;2022-07-29T00:07:45;1.77;;;1.20;;
15110;SDS011;7656;51.954;7.998;2022-07-29T00:12:06;1.97;;;1.20;;
15110;SDS011;7656;51.954;7.998;2022-07-29T00:16:28;2.93;;;1.40;;
15110;SDS011;7656;51.954;7.998;2022-07-29T00:20:49;3.30;;;1.40;;
15110;SDS011;7656;51.954;7.998;2022-07-29T00:25:11;2.23;;;2.03;;
15110;SDS011;7656;51.954;7.998;2022-07-29T00:29:33;2.00;;;1.40;;
15110;SDS011;7656;51.954;7.998;2022-07-29T00:33:55;1.30;;;1.10;;
15110;SDS011;7656;51.954;7.998;2022-07-29T00:38:16;3.87;;;1.30;;
15110;SDS011;7656;51.954;7.998;2022-07-29T00:42:47;1.00;;;1.00;;
15110;SDS011;7656;51.954;7.998;2022-07-29T00:47:13;2.20;;;1.40;;
15110;SDS011;7656;51.954;7.998;2022-07-29T00:51:35;2.10;;;1.33;;
15110;SDS011;7656;51.954;7.998;2022-07-29T00:55:58;2.60;;;1.10;;
15110;SDS011;7656;51.954;7.998;2022-07-29T01:00:21;2.40;;;1.50;;
15110;SDS011;7656;51.954;7.998;2022-07-29T01:04:45;4.33;;;1.50;;
15110;SDS011;7656;51.954;7.998;2022-07-29T01:09:06;1.63;;;1.17;;
15110;SDS011;7656;51.954;7.998;2022-07-29T01:13:29;1.03;;;1.03;;
15110;SDS011;7656;51.954;7.998;2022-07-29T01:17:54;3.67;;;1.37;;
15110;SDS011;7656;51.954;7.998;2022-07-29T01:31:58;1.90;;;1.20;;
15110;SDS011;7656;51.954;7.998;2022-07-29T01:36:31;2.33;;;1.37;;
15110;SDS011;7656;51.954;7.998;2022-07-29T01:41:08;1.73;;;1.50;;
15110;SDS011;7656;51.954;7.998;2022-07-29T01:45:36;2.63;;;1.50;;
15110;SDS011;7656;51.954;7.998;2022-07-29T01:50:05;1.43;;;1.20;;
15110;SDS011;7656;51.954;7.998;2022-07-29T01:58:56;3.63;;;1.30;;
15110;SDS011;7656;51.954;7.998;2022-07-29T02:03:19;1.60;;;1.30;;
15110;SDS011;7656;51.954;7.998;2022-07-29T02:07:42;2.20;;;1.23;;
15110;SDS011;7656;51.954;7.998;2022-07-29T02:12:05;2.73;;;1.50;;
15110;SDS011;7656;51.954;7.998;2022-07-29T02:16:28;2.57;;;1.10;;
15110;SDS011;7656;51.954;7.998;2022-07-29T02:20:53;4.77;;;1.97;;
15110;SDS011;7656;51.954;7.998;2022-07-29T02:25:19;1.60;;;1.33;;
15110;SDS011;7656;51.954;7.998;2022-07-29T02:29:42;1.93;;;1.30;;
15110;SDS011;7656;51.954;7.998;2022-07-29T02:34:06;1.17;;;1.10;;
15110;SDS011;7656;51.954;7.998;2022-07-29T02:38:29;2.80;;;1.40;;
15110;SDS011;7656;51.954;7.998;2022-07-29T02:43:10;2.47;;;1.50;;
15110;SDS011;7656;51.954;7.998;2022-07-29T02:57:31;1.73;;;1.50;;
15110;SDS011;7656;51.954;7.998;2022-07-29T03:02:04;2.50;;;1.37;;
15110;SDS011;7656;51.954;7.998;2022-07-29T03:06:27;1.80;;;1.33;;
15110;SDS011;7656;51.954;7.998;2022-07-29T03:10:49;1.57;;;1.33;;
15110;SDS011;7656;51.954;7.998;2022-07-29T03:15:13;2.10;;;1.60;;
15110;SDS011;7656;51.954;7.998;2022-07-29T03:19:35;6.70;;;1.47;;
15110;SDS011;7656;51.954;7.998;2022-07-29T03:23:56;5.93;;;1.60;;
15110;SDS011;7656;51.954;7.998;2022-07-29T03:28:18;2.20;;;1.50;;
15110;SDS011;7656;51.954;7.998;2022-07-29T03:32:40;2.10;;;1.17;;
15110;SDS011;7656;51.954;7.998;2022-07-29T03:37:01;5.10;;;1.53;;
15110;SDS011;7656;51.954;7.998;2022-07-29T03:41:23;3.87;;;1.20;;
15110;SDS011;7656;51.954;7.998;2022-07-29T03:45:47;4.23;;;1.47;;
15110;SDS011;7656;51.954;7.998;2022-07-29T03:50:11;1.73;;;1.43;;
15110;SDS011;7656;51.954;7.998;2022-07-29T03:54:35;3.73;;;1.53;;
15110;SDS011;7656;51.954;7.998;2022-07-29T03:58:57;1.90;;;1.47;;
15110;SDS011;7656;51.954;7.998;2022-07-29T04:03:19;1.40;;;1.23;;
15110;SDS011;7656;51.954;7.998;2022-07-29T04:07:47;2.30;;;1.50;;
15110;SDS011;7656;51.954;7.998;2022-07-29T04:12:09;1.90;;;1.53;;
15110;SDS011;7656;51.954;7.998;2022-07-29T04:16:31;3.70;;;1.43;;
15110;SDS011;7656;51.954;7.998;2022-07-29T04:20:52;3.27;;;1.37;;
15110;SDS011;7656;51.954;7.998;2022-07-29T04:25:14;2.20;;;1.30;;
15110;SDS011;7656;51.954;7.998;2022-07-29T04:29:35;1.73;;;1.30;;
15110;SDS011;7656;51.954;7.998;2022-07-29T04:33:56;2.60;;;1.40;;
15110;SDS011;7656;51.954;7.998;2022-07-29T04:38:17;1.63;;;1.13;;
15110;SDS011;7656;51.954;7.998;2022-07-29T04:42:39;2.93;;;1.73;;
15110;SDS011;7656;51.954;7.998;2022-07-29T04:47:00;5.33;;;3.60;;
15110;SDS011;7656;51.954;7.998;2022-07-29T04:51:21;2.07;;;1.50;;
15110;SDS011;7656;51.954;7.998;2022-07-29T04:55:43;1.97;;;1.30;;
15110;SDS011;7656;51.954;7.998;2022-07-29T05:00:05;3.77;;;1.33;;
15110;SDS011;7656;51.954;7.998;2022-07-29T05:04:27;2.27;;;1.30;;
15110;SDS011;7656;51.954;7.998;2022-07-29T05:08:48;3.13;;;1.33;;
15110;SDS011;7656;51.954;7.998;2022-07-29T05:13:10;2.43;;;1.50;;
15110;SDS011;7656;51.954;7.998;2022-07-29T05:17:31;2.07;;;1.63;;
15110;SDS011;7656;51.954;7.998;2022-07-29T05:21:52;3.53;;;1.70;;
15110;SDS011;7656;51.954;7.998;2022-07-29T05:26:13;3.03;;;1.40;;
15110;SDS011;7656;51.954;7.998;2022-07-29T05:30:34;2.60;;;1.30;;
15110;SDS011;7656;51.954;7.998;2022-07-29T05:34:56;3.10;;;1.77;;
15110;SDS011;7656;51.954;7.998;2022-07-29T05:39:17;2.77;;;1.40;;
15110;SDS011;7656;51.954;7.998;2022-07-29T05:43:38;2.50;;;1.50;;
15110;SDS011;7656;51.954;7.998;2022-07-29T05:47:59;9.23;;;1.60;;
15110;SDS011;7656;51.954;7.998;2022-07-29T05:52:21;2.40;;;1.23;;
15110;SDS011;7656;51.954;7.998;2022-07-29T05:56:42;1.90;;;1.50;;
15110;SDS011;7656;51.954;7.998;2022-07-29T06:01:03;1.57;;;1.33;;
15110;SDS011;7656;51.954;7.998;2022-07-29T06:05:25;2.53;;;1.67;;
15110;SDS011;7656;51.954;7.998;2022-07-29T06:09:46;3.38;;;1.52;;
15110;SDS011;7656;51.954;7.998;2022-07-29T06:14:07;2.93;;;1.70;;
15110;SDS011;7656;51.954;7.998;2022-07-29T06:18:28;2.30;;;1.17;;
15110;SDS011;7656;51.954;7.998;2022-07-29T06:22:50;5.88;;;1.55;;
15110;SDS011;7656;51.954;7.998;2022-07-29T06:27:11;1.77;;;1.10;;
15110;SDS011;7656;51.954;7.998;2022-07-29T06:31:32;5.20;;;1.53;;
15110;SDS011;7656;51.954;7.998;2022-07-29T06:35:54;1.88;;;1.20;;
15110;SDS011;7656;51.954;7.998;2022-07-29T06:40:16;5.53;;;1.42;;
15110;SDS011;7656;51.954;7.998;2022-07-29T06:44:56;1.75;;;1.33;;
15110;SDS011;7656;51.954;7.998;2022-07-29T06:49:17;3.13;;;1.13;;
15110;SDS011;7656;51.954;7.998;2022-07-29T06:53:39;4.15;;;1.52;;
15110;SDS011;7656;51.954;7.998;2022-07-29T06:58:00;3.47;;;1.70;;
15110;SDS011;7656;51.954;7.998;2022-07-29T07:02:22;2.92;;;1.58;;
15110;SDS011;7656;51.954;7.998;2022-07-29T07:06:43;1.50;;;1.40;;
15110;SDS011;7656;51.954;7.998;2022-07-29T07:11:04;1.75;;;1.40;;
15110;SDS011;7656;51.954;7.998;2022-07-29T07:15:27;2.55;;;1.33;;
15110;SDS011;7656;51.954;7.998;2022-07-29T07:19:48;1.80;;;1.50;;
15110;SDS011;7656;51.954;7.998;2022-07-29T07:24:09;2.63;;;1.67;;
15110;SDS011;7656;51.954;7.998;2022-07-29T07:28:31;3.42;;;1.75;;
15110;SDS011;7656;51.954;7.998;2022-07-29T07:32:52;2.78;;;1.55;;
15110;SDS011;7656;51.954;7.998;2022-07-29T07:37:14;1.80;;;1.70;;
15110;SDS011;7656;51.954;7.998;2022-07-29T07:41:36;1.88;;;1.45;;
15110;SDS011;7656;51.954;7.998;2022-07-29T07:45:57;1.98;;;1.60;;
15110;SDS011;7656;51.954;7.998;2022-07-29T07:50:18;2.15;;;1.60;;
15110;SDS011;7656;51.954;7.998;2022-07-29T07:54:39;2.45;;;1.45;;
15110;SDS011;7656;51.954;7.998;2022-07-29T07:59:00;1.83;;;1.40;;
15110;SDS011;7656;51.954;7.998;2022-07-29T08:03:22;2.72;;;1.42;;
15110;SDS011;7656;51.954;7.998;2022-07-29T08:07:44;2.83;;;1.52;;
15110;SDS011;7656;51.954;7.998;2022-07-29T08:12:07;1.98;;;1.70;;
15110;SDS011;7656;51.954;7.998;2022-07-29T08:16:29;1.58;;;1.45;;
15110;SDS011;7656;51.954;7.998;2022-07-29T08:20:50;4.13;;;1.55;;
15110;SDS011;7656;51.954;7.998;2022-07-29T08:25:11;1.42;;;1.33;;
15110;SDS011;7656;51.954;7.998;2022-07-29T08:29:33;2.40;;;1.65;;
15110;SDS011;7656;51.954;7.998;2022-07-29T08:33:54;2.70;;;1.77;;
15110;SDS011;7656;51.954;7.998;2022-07-29T08:38:16;1.95;;;1.60;;
15110;SDS011;7656;51.954;7.998;2022-07-29T08:42:37;3.50;;;1.92;;
15110;SDS011;7656;51.954;7.998;2022-07-29T08:46:59;2.13;;;1.80;;
15110;SDS011;7656;51.954;7.998;2022-07-29T08:51:20;5.22;;;1.70;;
15110;SDS011;7656;51.954;7.998;2022-07-29T08:55:42;2.20;;;1.55;;
15110;SDS011;7656;51.954;7.998;2022-07-29T09:00:07;2.03;;;1.60;;
15110;SDS011;7656;51.954;7.998;2022-07-29T09:04:31;2.85;;;1.70;;
15110;SDS011;7656;51.954;7.998;2022-07-29T09:08:55;1.83;;;1.45;;
15110;SDS011;7656;51.954;7.998;2022-07-29T09:13:20;2.50;;;1.70;;
15110;SDS011;7656;51.954;7.998;2022-07-29T09:17:42;3.05;;;1.35;;
15110;SDS011;7656;51.954;7.998;2022-07-29T09:22:08;6.63;;;1.83;;
15110;SDS011;7656;51.954;7.998;2022-07-29T09:26:31;1.90;;;1.75;;
15110;SDS011;7656;51.954;7.998;2022-07-29T09:30:55;1.80;;;1.52;;
15110;SDS011;7656;51.954;7.998;2022-07-29T09:35:20;1.67;;;1.58;;
15110;SDS011;7656;51.954;7.998;2022-07-29T09:39:44;4.40;;;1.63;;
15110;SDS011;7656;51.954;7.998;2022-07-29T09:44:05;3.22;;;1.63;;
15110;SDS011;7656;51.954;7.998;2022-07-29T09:48:27;2.05;;;1.30;;
15110;SDS011;7656;51.954;7.998;2022-07-29T09:52:48;3.63;;;1.77;;
15110;SDS011;7656;51.954;7.998;2022-07-29T09:57:27;2.28;;;1.67;;
15110;SDS011;7656;51.954;7.998;2022-07-29T10:01:49;4.75;;;1.73;;
15110;SDS011;7656;51.954;7.998;2022-07-29T10:06:11;3.10;;;1.70;;
15110;SDS011;7656;51.954;7.998;2022-07-29T10:10:35;3.42;;;1.77;;
15110;SDS011;7656;51.954;7.998;2022-07-29T10:14:59;5.45;;;1.83;;
15110;SDS011;7656;51.954;7.998;2022-07-29T10:19:22;2.97;;;2.13;;
15110;SDS011;7656;51.954;7.998;2022-07-29T10:23:44;3.10;;;1.75;;
15110;SDS011;7656;51.954;7.998;2022-07-29T10:28:06;2.35;;;1.90;;
15110;SDS011;7656;51.954;7.998;2022-07-29T10:36:56;2.22;;;1.70;;
15110;SDS011;7656;51.954;7.998;2022-07-29T10:46:16;5.90;;;2.08;;
15110;SDS011;7656;51.954;7.998;2022-07-29T10:50:54;3.92;;;2.00;;
15110;SDS011;7656;51.954;7.998;2022-07-29T10:55:34;2.00;;;1.77;;
15110;SDS011;7656;51.954;7.998;2022-07-29T11:09:19;2.10;;;1.90;;
15110;SDS011;7656;51.954;7.998;2022-07-29T11:18:10;2.33;;;1.80;;
15110;SDS011;7656;51.954;7.998;2022-07-29T11:22:33;4.05;;;1.80;;
15110;SDS011;7656;51.954;7.998;2022-07-29T11:31:43;2.67;;;2.03;;
15110;SDS011;7656;51.954;7.998;2022-07-29T11:36:07;2.80;;;2.15;;
15110;SDS011;7656;51.954;7.998;2022-07-29T11:40:33;3.67;;;2.17;;
15110;SDS011;7656;51.954;7.998;2022-07-29T11:44:55;1.75;;;1.65;;
15110;SDS011;7656;51.954;7.998;2022-07-29T11:49:21;2.58;;;1.77;;
15110;SDS011;7656;51.954;7.998;2022-07-29T11:53:47;2.03;;;1.92;;
15110;SDS011;7656;51.954;7.998;2022-07-29T11:58:08;3.25;;;2.03;;
15110;SDS011;7656;51.954;7.998;2022-07-29T12:02:39;2.28;;;2.05;;
15110;SDS011;7656;51.954;7.998;2022-07-29T12:07:02;3.08;;;1.70;;
15110;SDS011;7656;51.954;7.998;2022-07-29T12:11:23;5.90;;;1.70;;
15110;SDS011;7656;51.954;7.998;2022-07-29T12:15:55;1.88;;;1.70;;
15110;SDS011;7656;51.954;7.998;2022-07-29T12:20:22;2.97;;;1.73;;
15110;SDS011;7656;51.954;7.998;2022-07-29T12:24:49;3.60;;;1.65;;
15110;SDS011;7656;51.954;7.998;2022-07-29T12:29:14;3.05;;;1.88;;
15110;SDS011;7656;51.954;7.998;2022-07-29T12:33:37;3.33;;;2.05;;
15110;SDS011;7656;51.954;7.998;2022-07-29T12:37:59;5.80;;;2.20;;
15110;SDS011;7656;51.954;7.998;2022-07-29T12:42:20;2.08;;;1.88;;
15110;SDS011;7656;51.954;7.998;2022-07-29T12:46:41;6.07;;;1.90;;
15110;SDS011;7656;51.954;7.998;2022-07-29T12:51:03;2.55;;;1.85;;
15110;SDS011;7656;51.954;7.998;2022-07-29T12:55:43;3.47;;;2.20;;
15110;SDS011;7656;51.954;7.998;2022-07-29T13:00:12;4.05;;;1.80;;
15110;SDS011;7656;51.954;7.998;2022-07-29T13:04:34;4.10;;;2.22;;
15110;SDS011;7656;51.954;7.998;2022-07-29T13:13:44;2.22;;;1.73;;
15110;SDS011;7656;51.954;7.998;2022-07-29T13:18:31;2.67;;;1.67;;
15110;SDS011;7656;51.954;7.998;2022-07-29T13:22:56;3.60;;;1.80;;
15110;SDS011;7656;51.954;7.998;2022-07-29T13:27:26;3.70;;;1.95;;
15110;SDS011;7656;51.954;7.998;2022-07-29T13:31:49;3.00;;;2.00;;
15110;SDS011;7656;51.954;7.998;2022-07-29T13:36:10;4.63;;;2.20;;
15110;SDS011;7656;51.954;7.998;2022-07-29T13:40:32;2.88;;;1.80;;
15110;SDS011;7656;51.954;7.998;2022-07-29T13:44:55;3.85;;;2.00;;
15110;SDS011;7656;51.954;7.998;2022-07-29T13:49:16;3.90;;;2.00;;
15110;SDS011;7656;51.954;7.998;2022-07-29T13:53:38;4.03;;;2.13;;
15110;SDS011;7656;51.954;7.998;2022-07-29T13:57:59;4.00;;;1.73;;
15110;SDS011;7656;51.954;7.998;2022-07-29T14:02:20;4.30;;;2.00;;
15110;SDS011;7656;51.954;7.998;2022-07-29T14:06:43;7.22;;;2.25;;
15110;SDS011;7656;51.954;7.998;2022-07-29T14:11:04;4.22;;;2.00;;
15110;SDS011;7656;51.954;7.998;2022-07-29T14:15:25;6.55;;;2.53;;
15110;SDS011;7656;51.954;7.998;2022-07-29T14:19:46;3.17;;;2.05;;
15110;SDS011;7656;51.954;7.998;2022-07-29T14:24:08;4.78;;;2.30;;
15110;SDS011;7656;51.954;7.998;2022-07-29T14:28:29;5.78;;;2.55;;
15110;SDS011;7656;51.954;7.998;2022-07-29T14:32:50;3.85;;;2.47;;
15110;SDS011;7656;51.954;7.998;2022-07-29T14:37:11;5.10;;;2.75;;
15110;SDS011;7656;51.954;7.998;2022-07-29T14:41:32;5.07;;;2.78;;
15110;SDS011;7656;51.954;7.998;2022-07-29T14:45:54;4.72;;;2.67;;
15110;SDS011;7656;51.954;7.998;2022-07-29T14:50:15;3.75;;;2.40;;
15110;SDS011;7656;51.954;7.998;2022-07-29T14:54:37;4.88;;;2.85;;
15110;SDS011;7656;51.954;7.998;2022-07-29T14:58:58;4.78;;;4.30;;
15110;SDS011;7656;51.954;7.998;2022-07-29T15:03:19;4.28;;;3.17;;
15110;SDS011;7656;51.954;7.998;2022-07-29T15:07:41;3.60;;;3.30;;
15110;SDS011;7656;51.954;7.998;2022-07-29T15:12:02;5.45;;;3.17;;
15110;SDS011;7656;51.954;7.998;2022-07-29T15:16:25;3.38;;;2.65;;
15110;SDS011;7656;51.954;7.998;2022-07-29T15:20:46;3.38;;;2.95;;
15110;SDS011;7656;51.954;7.998;2022-07-29T15:25:07;2.97;;;2.67;;
15110;SDS011;7656;51.954;7.998;2022-07-29T15:29:29;6.65;;;2.72;;
15110;SDS011;7656;51.954;7.998;2022-07-29T15:33:50;4.55;;;2.90;;
15110;SDS011;7656;51.954;7.998;2022-07-29T15:38:11;5.25;;;2.50;;
15110;SDS011;7656;51.954;7.998;2022-07-29T15:42:33;3.67;;;2.65;;
15110;SDS011;7656;51.954;7.998;2022-07-29T15:46:57;3.75;;;3.08;;
15110;SDS011;7656;51.954;7.998;2022-07-29T15:51:27;5.88;;;2.70;;
15110;SDS011;7656;51.954;7.998;2022-07-29T15:55:48;5.97;;;2.80;;
15110;SDS011;7656;51.954;7.998;2022-07-29T16:00:10;3.47;;;2.63;;
15110;SDS011;7656;51.954;7.998;2022-07-29T16:04:32;3.33;;;2.70;;
15110;SDS011;7656;51.954;7.998;2022-07-29T16:08:54;4.75;;;2.65;;
15110;SDS011;7656;51.954;7.998;2022-07-29T16:13:15;2.72;;;2.50;;
15110;SDS011;7656;51.954;7.998;2022-07-29T16:17:37;5.82;;;2.67;;
15110;SDS011;7656;51.954;7.998;2022-07-29T16:21:58;5.53;;;2.90;;
15110;SDS011;7656;51.954;7.998;2022-07-29T16:26:19;3.22;;;2.60;;
15110;SDS011;7656;51.954;7.998;2022-07-29T16:30:41;4.38;;;2.75;;
15110;SDS011;7656;51.954;7.998;2022-07-29T16:35:02;4.43;;;3.50;;
15110;SDS011;7656;51.954;7.998;2022-07-29T16:39:24;2.67;;;2.47;;
15110;SDS011;7656;51.954;7.998;2022-07-29T16:43:46;3.30;;;2.35;;
15110;SDS011;7656;51.954;7.998;2022-07-29T16:48:07;2.53;;;2.33;;
15110;SDS011;7656;51.954;7.998;2022-07-29T16:52:28;6.35;;;2.85;;
15110;SDS011;7656;51.954;7.998;2022-07-29T16:56:49;4.70;;;2.85;;
15110;SDS011;7656;51.954;7.998;2022-07-29T17:01:11;2.70;;;2.50;;
15110;SDS011;7656;51.954;7.998;2022-07-29T17:05:32;3.05;;;2.53;;
15110;SDS011;7656;51.954;7.998;2022-07-29T17:09:53;3.53;;;2.80;;
15110;SDS011;7656;51.954;7.998;2022-07-29T17:14:14;6.65;;;2.50;;
15110;SDS011;7656;51.954;7.998;2022-07-29T17:18:35;2.53;;;2.10;;
15110;SDS011;7656;51.954;7.998;2022-07-29T17:22:57;3.20;;;2.10;;
15110;SDS011;7656;51.954;7.998;2022-07-29T17:27:18;3.13;;;2.30;;
15110;SDS011;7656;51.954;7.998;2022-07-29T17:31:39;4.43;;;2.50;;
15110;SDS011;7656;51.954;7.998;2022-07-29T17:36:01;3.42;;;2.40;;
15110;SDS011;7656;51.954;7.998;2022-07-29T17:40:41;3.72;;;2.90;;
15110;SDS011;7656;51.954;7.998;2022-07-29T17:45:03;2.90;;;2.25;;
15110;SDS011;7656;51.954;7.998;2022-07-29T17:49:24;3.22;;;2.38;;
15110;SDS011;7656;51.954;7.998;2022-07-29T17:53:46;3.72;;;2.45;;
15110;SDS011;7656;51.954;7.998;2022-07-29T17:58:08;2.20;;;2.03;;
15110;SDS011;7656;51.954;7.998;2022-07-29T18:02:29;3.30;;;2.50;;
15110;SDS011;7656;51.954;7.998;2022-07-29T18:06:50;4.55;;;2.70;;
15110;SDS011;7656;51.954;7.998;2022-07-29T18:11:12;3.65;;;2.30;;
15110;SDS011;7656;51.954;7.998;2022-07-29T18:15:34;4.05;;;2.55;;
15110;SDS011;7656;51.954;7.998;2022-07-29T18:19:55;3.50;;;2.30;;
15110;SDS011;7656;51.954;7.998;2022-07-29T18:24:16;5.68;;;2.83;;
15110;SDS011;7656;51.954;7.998;2022-07-29T18:28:38;2.83;;;2.63;;
15110;SDS011;7656;51.954;7.998;2022-07-29T18:32:59;5.75;;;3.10;;
15110;SDS011;7656;51.954;7.998;2022-07-29T18:37:20;3.05;;;2.58;;
15110;SDS011;7656;51.954;7.998;2022-07-29T18:41:41;6.63;;;2.92;;
15110;SDS011;7656;51.954;7.998;2022-07-29T18:46:03;4.25;;;2.38;;
15110;SDS011;7656;51.954;7.998;2022-07-29T18:50:26;5.93;;;2.80;;
15110;SDS011;7656;51.954;7.998;2022-07-29T18:54:48;2.90;;;2.65;;
15110;SDS011;7656;51.954;7.998;2022-07-29T18:59:09;5.10;;;2.75;;
15110;SDS011;7656;51.954;7.998;2022-07-29T19:03:30;2.92;;;2.72;;
15110;SDS011;7656;51.954;7.998;2022-07-29T19:07:52;5.60;;;2.63;;
15110;SDS011;7656;51.954;7.998;2022-07-29T19:12:14;2.90;;;2.70;;
15110;SDS011;7656;51.954;7.998;2022-07-29T19:16:35;2.90;;;2.33;;
15110;SDS011;7656;51.954;7.998;2022-07-29T19:20:57;2.70;;;2.45;;
15110;SDS011;7656;51.954;7.998;2022-07-29T19:25:18;2.83;;;2.50;;
15110;SDS011;7656;51.954;7.998;2022-07-29T19:29:39;3.95;;;2.38;;
15110;SDS011;7656;51.954;7.998;2022-07-29T19:34:01;3.22;;;2.53;;
15110;SDS011;7656;51.954;7.998;2022-07-29T19:38:22;3.70;;;2.58;;
15110;SDS011;7656;51.954;7.998;2022-07-29T19:42:43;6.18;;;3.05;;
15110;SDS011;7656;51.954;7.998;2022-07-29T19:47:04;4.70;;;3.17;;
15110;SDS011;7656;51.954;7.998;2022-07-29T19:51:26;3.33;;;2.67;;
15110;SDS011;7656;51.954;7.998;2022-07-29T19:55:47;2.78;;;2.20;;
15110;SDS011;7656;51.954;7.998;2022-07-29T20:00:09;2.90;;;2.70;;
15110;SDS011;7656;51.954;7.998;2022-07-29T20:04:32;4.00;;;2.90;;
15110;SDS011;7656;51.954;7.998;2022-07-29T20:08:53;3.60;;;2.70;;
15110;SDS011;7656;51.954;7.998;2022-07-29T20:13:15;5.18;;;2.88;;
15110;SDS011;7656;51.954;7.998;2022-07-29T20:17:36;2.80;;;2.60;;
15110;SDS011;7656;51.954;7.998;2022-07-29T20:21:57;3.20;;;2.90;;
15110;SDS011;7656;51.954;7.998;2022-07-29T20:26:19;6.22;;;3.05;;
15110;SDS011;7656;51.954;7.998;2022-07-29T20:30:40;3.25;;;2.95;;
15110;SDS011;7656;51.954;7.998;2022-07-29T20:35:01;3.22;;;2.95;;
15110;SDS011;7656;51.954;7.998;2022-07-29T20:39:23;3.95;;;3.22;;
15110;SDS011;7656;51.954;7.998;2022-07-29T20:43:45;3.50;;;3.20;;
15110;SDS011;7656;51.954;7.998;2022-07-29T20:48:07;3.92;;;3.63;;
15110;SDS011;7656;51.954;7.998;2022-07-29T20:52:32;3.50;;;3.20;;
15110;SDS011;7656;51.954;7.998;2022-07-29T20:56:54;4.47;;;3.50;;
15110;SDS011;7656;51.954;7.998;2022-07-29T21:01:15;4.25;;;2.90;;
15110;SDS011;7656;51.954;7.998;2022-07-29T21:05:36;3.10;;;2.90;;
15110;SDS011;7656;51.954;7.998;2022-07-29T21:09:57;3.97;;;3.58;;
15110;SDS011;7656;51.954;7.998;2022-07-29T21:14:19;3.53;;;3.22;;
15110;SDS011;7656;51.954;7.998;2022-07-29T21:19:00;4.53;;;3.72;;
15110;SDS011;7656;51.954;7.998;2022-07-29T21:23:22;4.18;;;3.63;;
15110;SDS011;7656;51.954;7.998;2022-07-29T21:27:44;5.00;;;3.70;;
15110;SDS011;7656;51.954;7.998;2022-07-29T21:32:23;4.53;;;3.20;;
15110;SDS011;7656;51.954;7.998;2022-07-29T21:36:45;4.85;;;3.78;;
15110;SDS011;7656;51.954;7.998;2022-07-29T21:41:06;3.78;;;3.47;;
15110;SDS011;7656;51.954;7.998;2022-07-29T21:45:30;3.75;;;3.45;;
15110;SDS011;7656;51.954;7.998;2022-07-29T21:49:51;6.78;;;4.00;;
15110;SDS011;7656;51.954;7.998;2022-07-29T21:54:12;3.72;;;3.42;;
15110;SDS011;7656;51.954;7.998;2022-07-29T21:58:33;4.97;;;4.10;;
15110;SDS011;7656;51.954;7.998;2022-07-29T22:02:55;4.70;;;4.07;;
15110;SDS011;7656;51.954;7.998;2022-07-29T22:07:16;4.25;;;3.85;;
15110;SDS011;7656;51.954;7.998;2022-07-29T22:11:37;5.78;;;4.00;;
15110;SDS011;7656;51.954;7.998;2022-07-29T22:15:58;4.80;;;4.40;;
15110;SDS011;7656;51.954;7.998;2022-07-29T22:20:20;6.10;;;4.53;;
15110;SDS011;7656;51.954;7.998;2022-07-29T22:24:42;5.53;;;3.90;;
15110;SDS011;7656;51.954;7.998;2022-07-29T22:29:03;4.93;;;3.88;;
15110;SDS011;7656;51.954;7.998;2022-07-29T22:33:25;4.82;;;4.43;;
15110;SDS011;7656;51.954;7.998;2022-07-29T22:37:48;5.43;;;4.67;;
15110;SDS011;7656;51.954;7.998;2022-07-29T22:42:10;4.87;;;4.47;;
15110;SDS011;7656;51.954;7.998;2022-07-29T22:46:32;5.87;;;4.60;;
15110;SDS011;7656;51.954;7.998;2022-07-29T22:50:53;5.37;;;4.03;;
15110;SDS011;7656;51.954;7.998;2022-07-29T22:55:14;5.07;;;4.57;;
15110;SDS011;7656;51.954;7.998;2022-07-29T22:59:36;5.83;;;4.20;;
15110;SDS011;7656;51.954;7.998;2022-07-29T23:03:57;6.40;;;4.50;;
15110;SDS011;7656;51.954;7.998;2022-07-29T23:08:18;5.43;;;4.93;;
15110;SDS011;7656;51.954;7.998;2022-07-29T23:12:40;4.90;;;4.50;;
15110;SDS011;7656;51.954;7.998;2022-07-29T23:17:01;5.07;;;4.57;;
15110;SDS011;7656;51.954;7.998;2022-07-29T23:21:22;4.77;;;4.20;;
15110;SDS011;7656;51.954;7.998;2022-07-29T23:25:44;5.53;;;4.70;;
15110;SDS011;7656;51.954;7.998;2022-07-29T23:30:05;4.93;;;4.53;;
15110;SDS011;7656;51.954;7.998;2022-07-29T23:34:27;8.87;;;4.90;;
15110;SDS011;7656;51.954;7.998;2022-07-29T23:38:48;6.70;;;5.07;;
15110;SDS011;7656;51.954;7.998;2022-07-29T23:43:09;5.27;;;4.70;;
15110;SDS011;7656;51.954;7.998;2022-07-29T23:47:30;8.67;;;5.50;;
15110;SDS011;7656;51.954;7.998;2022-07-29T23:51:51;5.80;;;5.30;;
15110;SDS011;7656;51.954;7.998;2022-07-29T23:56:13;8.90;;;5.20;;
